createdAt,value
2023-03-29T00:01:35.361Z,2.85
2023-03-29T00:04:04.341Z,2.67
2023-03-29T00:06:31.182Z,2.15
2023-03-29T00:08:57.621Z,2.78
2023-03-29T00:11:24.201Z,2.55
2023-03-29T00:13:50.736Z,2.78
2023-03-29T00:16:17.496Z,2.35
2023-03-29T00:18:45.281Z,2.63
2023-03-29T00:21:11.777Z,2.83
2023-03-29T00:23:38.198Z,2.80
2023-03-29T00:26:07.173Z,3.17
2023-03-29T00:28:34.423Z,2.70
2023-03-29T00:31:09.486Z,2.78
2023-03-29T00:33:36.695Z,2.70
2023-03-29T00:36:04.532Z,2.67
2023-03-29T00:38:31.799Z,2.53
2023-03-29T00:40:58.638Z,2.65
2023-03-29T00:43:25.413Z,2.47
2023-03-29T00:45:54.757Z,2.80
2023-03-29T00:48:26.293Z,2.50
2023-03-29T00:51:09.979Z,2.97
2023-03-29T00:53:42.592Z,2.95
2023-03-29T00:56:17.520Z,3.08
2023-03-29T00:58:50.098Z,2.70
2023-03-29T01:01:21.144Z,2.70
2023-03-29T01:03:55.298Z,2.80
2023-03-29T01:06:27.352Z,2.67
2023-03-29T01:08:59.990Z,2.78
2023-03-29T01:11:29.069Z,2.67
2023-03-29T01:14:03.978Z,2.33
2023-03-29T01:16:33.037Z,2.25
2023-03-29T01:19:00.403Z,2.40
2023-03-29T01:21:36.405Z,2.45
2023-03-29T01:24:41.879Z,2.75
2023-03-29T01:27:47.560Z,2.88
2023-03-29T01:30:20.890Z,2.22
2023-03-29T01:32:57.198Z,2.38
2023-03-29T01:35:44.648Z,2.45
2023-03-29T01:38:34.226Z,2.40
2023-03-29T01:41:03.240Z,2.90
2023-03-29T01:43:46.608Z,2.40
2023-03-29T01:46:38.547Z,2.67
2023-03-29T01:49:21.799Z,2.40
2023-03-29T01:51:59.729Z,2.50
2023-03-29T01:54:32.096Z,2.90
2023-03-29T01:57:00.646Z,2.60
2023-03-29T01:59:31.099Z,2.80
2023-03-29T02:02:00.699Z,2.22
2023-03-29T02:04:34.569Z,2.70
2023-03-29T02:07:03.125Z,2.60
2023-03-29T02:09:30.701Z,2.65
2023-03-29T02:12:00.736Z,2.70
2023-03-29T02:14:27.691Z,2.67
2023-03-29T02:16:54.211Z,2.35
2023-03-29T02:19:22.038Z,2.38
2023-03-29T02:22:09.581Z,2.73
2023-03-29T02:24:38.043Z,2.75
2023-03-29T02:27:04.845Z,2.35
2023-03-29T02:29:31.464Z,2.75
2023-03-29T02:32:15.894Z,2.38
2023-03-29T02:34:51.580Z,2.63
2023-03-29T02:37:21.594Z,2.60
2023-03-29T02:39:51.174Z,2.63
2023-03-29T02:42:20.488Z,3.03
2023-03-29T02:44:51.041Z,2.90
2023-03-29T02:47:25.082Z,2.90
2023-03-29T02:49:51.682Z,2.95
2023-03-29T02:52:23.966Z,3.10
2023-03-29T02:54:54.453Z,2.72
2023-03-29T02:57:26.629Z,3.05
2023-03-29T02:59:56.942Z,3.38
2023-03-29T03:02:27.673Z,3.13
2023-03-29T03:04:54.320Z,3.35
2023-03-29T03:07:21.080Z,3.40
2023-03-29T03:09:47.834Z,3.72
2023-03-29T03:12:14.347Z,3.67
2023-03-29T03:14:40.864Z,3.28
2023-03-29T03:17:07.382Z,3.10
2023-03-29T03:19:33.940Z,3.60
2023-03-29T03:22:00.472Z,3.80
2023-03-29T03:24:28.053Z,3.53
2023-03-29T03:26:54.548Z,3.22
2023-03-29T03:29:21.050Z,3.50
2023-03-29T03:31:47.546Z,3.65
2023-03-29T03:34:14.230Z,3.05
2023-03-29T03:36:41.059Z,3.22
2023-03-29T03:39:07.982Z,3.40
2023-03-29T03:41:34.863Z,2.88
2023-03-29T03:44:01.737Z,3.25
2023-03-29T03:46:29.582Z,2.95
2023-03-29T03:48:56.320Z,3.60
2023-03-29T03:51:23.124Z,3.67
2023-03-29T03:53:49.825Z,3.33
2023-03-29T03:56:16.412Z,3.30
2023-03-29T03:58:43.174Z,3.35
2023-03-29T04:01:09.878Z,3.33
2023-03-29T04:03:37.639Z,3.78
2023-03-29T04:06:05.198Z,3.23
2023-03-29T04:08:32.008Z,2.97
2023-03-29T04:10:59.674Z,3.25
2023-03-29T04:13:27.160Z,2.75
2023-03-29T04:15:55.210Z,3.08
2023-03-29T04:18:23.122Z,3.58
2023-03-29T04:20:50.761Z,3.13
2023-03-29T04:23:17.710Z,3.42
2023-03-29T04:25:44.209Z,3.20
2023-03-29T04:28:12.020Z,3.50
2023-03-29T04:30:38.656Z,3.13
2023-03-29T04:33:05.428Z,3.22
2023-03-29T04:35:32.421Z,2.92
2023-03-29T04:37:59.086Z,3.00
2023-03-29T04:40:25.529Z,3.25
2023-03-29T04:42:52.747Z,3.30
2023-03-29T04:45:19.243Z,3.33
2023-03-29T04:47:46.343Z,3.53
2023-03-29T04:50:13.912Z,3.55
2023-03-29T04:52:40.868Z,2.92
2023-03-29T04:55:07.831Z,3.72
2023-03-29T04:57:34.387Z,3.03
2023-03-29T05:00:01.045Z,3.05
2023-03-29T05:02:27.581Z,3.10
2023-03-29T05:04:54.180Z,2.95
2023-03-29T05:07:20.642Z,2.83
2023-03-29T05:09:47.389Z,3.53
2023-03-29T05:12:13.993Z,3.08
2023-03-29T05:14:40.568Z,3.10
2023-03-29T05:17:08.034Z,2.60
2023-03-29T05:19:36.323Z,2.42
2023-03-29T05:22:02.886Z,2.67
2023-03-29T05:24:29.308Z,2.90
2023-03-29T05:26:56.472Z,2.95
2023-03-29T05:29:23.500Z,3.15
2023-03-29T05:31:50.085Z,3.53
2023-03-29T05:34:16.746Z,2.90
2023-03-29T05:36:43.519Z,3.03
2023-03-29T05:39:10.905Z,3.20
2023-03-29T05:41:38.027Z,2.90
2023-03-29T05:44:04.480Z,2.95
2023-03-29T05:46:30.928Z,3.45
2023-03-29T05:48:57.432Z,2.72
2023-03-29T05:51:24.620Z,3.28
2023-03-29T05:53:52.003Z,2.92
2023-03-29T05:56:19.057Z,2.80
2023-03-29T05:58:49.338Z,2.80
2023-03-29T06:01:18.759Z,3.03
2023-03-29T06:03:47.515Z,2.95
2023-03-29T06:06:16.142Z,2.80
2023-03-29T06:08:43.190Z,2.90
2023-03-29T06:11:10.888Z,3.10
2023-03-29T06:13:38.884Z,2.63
2023-03-29T06:16:06.349Z,2.92
2023-03-29T06:18:33.242Z,3.05
2023-03-29T06:21:00.691Z,2.88
2023-03-29T06:23:27.314Z,3.25
2023-03-29T06:25:55.374Z,2.88
2023-03-29T06:28:22.791Z,3.10
2023-03-29T06:30:49.453Z,2.72
2023-03-29T06:33:16.918Z,2.70
2023-03-29T06:35:46.894Z,3.15
2023-03-29T06:38:15.032Z,3.45
2023-03-29T06:40:43.287Z,3.08
2023-03-29T06:43:10.100Z,3.25
2023-03-29T06:45:37.796Z,3.00
2023-03-29T06:48:06.435Z,3.30
2023-03-29T06:50:34.129Z,3.72
2023-03-29T06:53:01.492Z,3.45
2023-03-29T06:55:28.779Z,3.83
2023-03-29T06:57:55.382Z,3.90
2023-03-29T07:00:28.331Z,3.63
2023-03-29T07:02:56.597Z,4.15
2023-03-29T07:05:23.952Z,3.80
2023-03-29T07:08:05.609Z,3.60
2023-03-29T07:10:38.221Z,3.88
2023-03-29T07:13:07.063Z,3.92
2023-03-29T07:15:33.613Z,3.78
2023-03-29T07:18:02.156Z,3.72
2023-03-29T07:20:29.094Z,4.03
2023-03-29T07:22:56.028Z,4.20
2023-03-29T07:25:24.003Z,3.50
2023-03-29T07:27:52.120Z,4.20
2023-03-29T07:30:21.312Z,3.92
2023-03-29T07:32:48.083Z,3.60
2023-03-29T07:35:15.269Z,3.90
2023-03-29T07:37:42.735Z,4.15
2023-03-29T07:40:16.011Z,4.18
2023-03-29T07:42:44.387Z,3.50
2023-03-29T07:45:13.614Z,3.30
2023-03-29T07:47:41.143Z,4.13
2023-03-29T07:50:09.579Z,3.60
2023-03-29T07:52:38.220Z,3.60
2023-03-29T07:57:32.546Z,4.50
2023-03-29T07:59:59.187Z,4.03
2023-03-29T08:02:27.514Z,4.32
2023-03-29T08:04:54.491Z,4.10
2023-03-29T08:07:21.334Z,4.28
2023-03-29T08:09:48.668Z,4.80
2023-03-29T08:12:15.670Z,4.22
2023-03-29T08:14:42.249Z,4.20
2023-03-29T08:17:08.815Z,4.30
2023-03-29T08:19:35.745Z,5.15
2023-03-29T08:22:02.597Z,4.60
2023-03-29T08:24:29.194Z,4.93
2023-03-29T08:26:55.912Z,5.43
2023-03-29T08:29:22.441Z,5.10
2023-03-29T08:31:49.429Z,5.20
2023-03-29T08:34:16.165Z,4.70
2023-03-29T08:36:42.630Z,4.88
2023-03-29T08:39:10.124Z,4.47
2023-03-29T08:41:40.007Z,5.05
2023-03-29T08:44:34.115Z,5.78
2023-03-29T08:47:09.123Z,5.22
2023-03-29T08:49:39.781Z,5.82
2023-03-29T08:52:17.029Z,5.88
2023-03-29T08:54:48.374Z,6.22
2023-03-29T08:57:31.073Z,5.25
2023-03-29T09:00:01.933Z,5.78
2023-03-29T09:02:33.520Z,6.03
2023-03-29T09:05:07.653Z,6.18
2023-03-29T09:07:34.166Z,5.85
2023-03-29T09:10:00.688Z,6.00
2023-03-29T09:13:15.010Z,6.15
2023-03-29T09:15:54.403Z,6.30
2023-03-29T09:18:33.858Z,5.65
2023-03-29T09:21:11.174Z,6.63
2023-03-29T09:23:44.453Z,6.80
2023-03-29T09:26:36.909Z,6.55
2023-03-29T09:29:15.448Z,5.50
2023-03-29T09:34:22.748Z,5.97
2023-03-29T09:36:52.474Z,6.82
2023-03-29T09:39:23.167Z,7.50
2023-03-29T09:42:05.513Z,7.38
2023-03-29T09:44:37.610Z,7.18
2023-03-29T09:47:45.073Z,7.50
2023-03-29T09:50:31.082Z,7.25
2023-03-29T09:52:58.638Z,8.85
2023-03-29T09:55:29.437Z,7.47
2023-03-29T09:58:00.713Z,8.05
2023-03-29T10:00:27.571Z,7.03
2023-03-29T10:02:57.917Z,7.30
2023-03-29T10:05:26.204Z,7.05
2023-03-29T10:07:57.677Z,7.68
2023-03-29T10:10:35.279Z,8.20
2023-03-29T10:13:07.040Z,7.90
2023-03-29T10:15:33.524Z,7.40
2023-03-29T10:18:05.631Z,7.65
2023-03-29T10:20:36.287Z,6.50
2023-03-29T10:23:05.277Z,7.20
2023-03-29T10:25:36.709Z,6.85
2023-03-29T10:28:11.705Z,7.25
2023-03-29T10:30:40.304Z,6.95
2023-03-29T10:35:41.936Z,6.65
2023-03-29T10:38:14.874Z,7.45
2023-03-29T10:40:47.498Z,6.78
2023-03-29T10:43:16.941Z,7.70
2023-03-29T10:45:43.961Z,7.18
2023-03-29T10:48:15.593Z,7.30
2023-03-29T10:50:42.847Z,7.05
2023-03-29T10:53:37.895Z,7.28
2023-03-29T10:56:16.795Z,7.75
2023-03-29T10:59:04.659Z,7.57
2023-03-29T11:01:55.896Z,6.78
2023-03-29T11:04:49.231Z,6.78
2023-03-29T11:07:36.726Z,7.20
2023-03-29T11:10:28.510Z,7.80
2023-03-29T11:13:11.803Z,7.85
2023-03-29T11:16:02.615Z,6.65
2023-03-29T11:18:42.931Z,6.60
2023-03-29T11:21:17.817Z,6.40
2023-03-29T11:24:19.260Z,6.40
2023-03-29T11:26:57.951Z,6.05
2023-03-29T11:29:58.628Z,6.68
2023-03-29T11:32:47.347Z,6.47
2023-03-29T11:35:35.108Z,7.00
2023-03-29T11:38:27.045Z,6.45
2023-03-29T11:41:11.725Z,6.68
2023-03-29T11:44:07.193Z,6.13
2023-03-29T11:46:41.693Z,7.05
2023-03-29T11:49:21.403Z,6.07
2023-03-29T11:51:54.412Z,6.40
2023-03-29T11:54:45.421Z,6.43
2023-03-29T11:57:25.884Z,6.35
2023-03-29T12:00:06.014Z,6.50
2023-03-29T12:02:43.828Z,7.47
2023-03-29T12:05:32.982Z,6.15
2023-03-29T12:08:07.110Z,6.72
2023-03-29T12:10:43.008Z,5.95
2023-03-29T12:13:18.969Z,6.65
2023-03-29T12:15:59.813Z,6.22
2023-03-29T12:18:36.659Z,7.05
2023-03-29T12:21:11.573Z,6.63
2023-03-29T12:23:38.324Z,7.25
2023-03-29T12:26:17.289Z,7.18
2023-03-29T12:29:08.262Z,7.13
2023-03-29T12:32:11.530Z,7.22
2023-03-29T12:35:17.340Z,7.13
2023-03-29T12:37:58.317Z,7.00
2023-03-29T12:40:35.907Z,6.15
2023-03-29T12:43:07.131Z,6.97
2023-03-29T12:45:38.720Z,6.40
2023-03-29T12:48:09.737Z,5.85
2023-03-29T12:50:42.254Z,5.85
2023-03-29T12:53:26.564Z,6.22
2023-03-29T12:56:08.653Z,5.78
2023-03-29T12:58:50.073Z,6.75
2023-03-29T13:01:36.983Z,6.22
2023-03-29T13:04:20.046Z,6.18
2023-03-29T13:06:46.548Z,6.40
2023-03-29T13:09:30.872Z,6.25
2023-03-29T13:12:05.915Z,6.43
2023-03-29T13:14:37.381Z,6.78
2023-03-29T13:17:17.842Z,6.85
2023-03-29T13:20:13.304Z,7.00
2023-03-29T13:23:10.033Z,6.72
2023-03-29T13:26:02.786Z,6.80
2023-03-29T13:28:36.552Z,6.80
2023-03-29T13:31:21.683Z,7.18
2023-03-29T13:33:57.141Z,6.43
2023-03-29T13:36:39.873Z,6.32
2023-03-29T13:39:07.478Z,6.47
2023-03-29T13:41:40.294Z,6.30
2023-03-29T13:44:22.018Z,6.75
2023-03-29T13:47:01.192Z,6.90
2023-03-29T13:49:32.012Z,6.93
2023-03-29T13:52:15.137Z,6.97
2023-03-29T13:54:47.531Z,6.80
2023-03-29T13:57:21.713Z,6.82
2023-03-29T14:00:07.160Z,6.28
2023-03-29T14:02:42.068Z,6.63
2023-03-29T14:05:13.634Z,6.72
2023-03-29T14:07:46.406Z,6.22
2023-03-29T14:10:27.260Z,6.53
2023-03-29T14:12:55.841Z,6.03
2023-03-29T14:18:04.827Z,6.32
2023-03-29T14:20:33.336Z,6.75
2023-03-29T14:25:29.379Z,6.40
2023-03-29T14:27:55.970Z,6.38
2023-03-29T14:30:27.483Z,6.57
2023-03-29T14:32:55.423Z,5.93
2023-03-29T14:35:30.502Z,6.28
2023-03-29T14:37:57.356Z,6.68
2023-03-29T14:40:24.424Z,5.82
2023-03-29T14:42:51.199Z,6.10
2023-03-29T14:45:20.957Z,5.60
2023-03-29T14:47:48.639Z,6.55
2023-03-29T14:50:29.349Z,6.13
2023-03-29T14:52:58.488Z,5.70
2023-03-29T14:55:25.470Z,6.50
2023-03-29T14:57:55.123Z,5.57
2023-03-29T15:00:22.258Z,7.40
2023-03-29T15:03:00.480Z,5.80
2023-03-29T15:05:43.920Z,5.78
2023-03-29T15:08:17.867Z,5.80
2023-03-29T15:10:45.039Z,6.05
2023-03-29T15:13:18.566Z,5.90
2023-03-29T15:15:45.732Z,5.32
2023-03-29T15:18:16.156Z,5.35
2023-03-29T15:20:44.962Z,4.72
2023-03-29T15:23:14.360Z,4.65
2023-03-29T15:26:08.816Z,4.60
2023-03-29T15:28:45.253Z,4.40
2023-03-29T15:31:14.812Z,4.30
2023-03-29T15:33:42.015Z,3.97
2023-03-29T15:36:10.776Z,4.03
2023-03-29T15:38:43.790Z,3.90
2023-03-29T15:41:10.903Z,3.88
2023-03-29T15:43:37.617Z,3.67
2023-03-29T15:46:04.546Z,3.47
2023-03-29T15:48:37.400Z,3.85
2023-03-29T15:51:06.529Z,3.15
2023-03-29T15:53:33.672Z,3.78
2023-03-29T15:56:07.143Z,3.13
2023-03-29T15:58:35.474Z,3.45
2023-03-29T16:01:33.709Z,3.50
2023-03-29T16:04:19.312Z,3.60
2023-03-29T16:06:48.660Z,3.17
2023-03-29T16:09:19.229Z,3.58
2023-03-29T16:11:47.428Z,3.15
2023-03-29T16:14:20.525Z,3.50
2023-03-29T16:16:47.194Z,3.33
2023-03-29T16:19:13.674Z,3.47
2023-03-29T16:21:40.739Z,3.60
2023-03-29T16:24:19.811Z,3.63
2023-03-29T16:26:46.994Z,3.78
2023-03-29T16:29:13.790Z,3.33
2023-03-29T16:31:40.683Z,3.60
2023-03-29T16:34:09.257Z,3.50
2023-03-29T16:39:05.567Z,3.50
2023-03-29T16:41:32.806Z,3.72
2023-03-29T16:43:59.872Z,3.95
2023-03-29T16:46:26.588Z,3.80
2023-03-29T16:48:53.952Z,3.42
2023-03-29T16:51:21.349Z,3.45
2023-03-29T16:53:48.844Z,3.80
2023-03-29T16:56:15.946Z,3.95
2023-03-29T16:58:42.494Z,3.30
2023-03-29T17:01:14.804Z,3.92
2023-03-29T17:03:44.002Z,3.67
2023-03-29T17:06:13.403Z,3.05
2023-03-29T17:08:40.000Z,4.13
2023-03-29T17:11:07.124Z,3.92
2023-03-29T17:13:33.725Z,3.72
2023-03-29T17:16:00.353Z,4.35
2023-03-29T17:18:29.957Z,3.72
2023-03-29T17:20:58.400Z,4.80
2023-03-29T17:25:57.805Z,4.57
2023-03-29T17:28:24.504Z,4.18
2023-03-29T17:30:51.571Z,4.10
2023-03-29T17:33:22.828Z,4.50
2023-03-29T17:35:49.637Z,4.85
2023-03-29T17:38:16.298Z,3.97
2023-03-29T17:40:43.176Z,3.95
2023-03-29T17:43:09.659Z,4.72
2023-03-29T17:45:36.557Z,5.00
2023-03-29T17:48:06.207Z,5.00
2023-03-29T17:50:32.963Z,5.65
2023-03-29T17:52:59.431Z,4.53
2023-03-29T17:55:26.501Z,4.55
2023-03-29T17:57:52.977Z,4.88
2023-03-29T18:00:19.996Z,4.60
2023-03-29T18:02:46.708Z,5.25
2023-03-29T18:05:13.385Z,4.53
2023-03-29T18:07:39.910Z,4.93
2023-03-29T18:10:08.124Z,4.43
2023-03-29T18:12:34.831Z,4.85
2023-03-29T18:15:01.670Z,5.75
2023-03-29T18:17:29.233Z,5.72
2023-03-29T18:19:56.151Z,5.53
2023-03-29T18:22:23.966Z,5.60
2023-03-29T18:24:51.252Z,5.78
2023-03-29T18:27:18.634Z,5.60
2023-03-29T18:29:45.411Z,5.40
2023-03-29T18:32:12.084Z,4.97
2023-03-29T18:34:39.318Z,4.72
2023-03-29T18:37:06.302Z,5.18
2023-03-29T18:39:34.629Z,5.28
2023-03-29T18:42:01.698Z,4.65
2023-03-29T18:44:28.455Z,4.85
2023-03-29T18:46:55.094Z,4.88
2023-03-29T18:49:21.546Z,5.03
2023-03-29T18:51:49.526Z,5.05
2023-03-29T18:54:16.152Z,5.00
2023-03-29T18:56:42.645Z,5.82
2023-03-29T18:59:09.407Z,6.22
2023-03-29T19:01:36.377Z,6.10
2023-03-29T19:04:03.150Z,5.72
2023-03-29T19:06:29.724Z,5.50
2023-03-29T19:08:58.316Z,5.85
2023-03-29T19:13:54.194Z,5.60
2023-03-29T19:16:20.949Z,6.20
2023-03-29T19:18:47.529Z,5.43
2023-03-29T19:21:14.016Z,6.10
2023-03-29T19:23:41.024Z,5.13
2023-03-29T19:26:08.576Z,4.97
2023-03-29T19:28:35.077Z,6.10
2023-03-29T19:31:03.035Z,5.45
2023-03-29T19:33:30.165Z,6.18
2023-03-29T19:35:56.719Z,5.10
2023-03-29T19:38:23.449Z,5.95
2023-03-29T19:40:51.615Z,5.35
2023-03-29T19:43:18.773Z,5.53
2023-03-29T19:45:47.262Z,5.63
2023-03-29T19:48:21.996Z,5.13
2023-03-29T19:50:49.304Z,4.93
2023-03-29T19:53:15.893Z,5.15
2023-03-29T19:55:43.307Z,4.97
2023-03-29T19:58:09.911Z,4.93
2023-03-29T20:00:38.699Z,4.15
2023-03-29T20:03:08.957Z,4.28
2023-03-29T20:05:36.899Z,3.95
2023-03-29T20:08:03.423Z,4.10
2023-03-29T20:10:30.275Z,3.53
2023-03-29T20:12:57.063Z,4.43
2023-03-29T20:15:25.916Z,4.43
2023-03-29T20:17:54.166Z,4.50
2023-03-29T20:20:22.963Z,4.00
2023-03-29T20:22:49.500Z,3.83
2023-03-29T20:25:16.006Z,4.10
2023-03-29T20:27:42.821Z,4.10
2023-03-29T20:30:10.915Z,4.28
2023-03-29T20:32:37.542Z,3.63
2023-03-29T20:35:04.270Z,4.03
2023-03-29T20:37:30.820Z,4.20
2023-03-29T20:39:59.307Z,4.22
2023-03-29T20:42:28.665Z,3.38
2023-03-29T20:44:55.994Z,3.80
2023-03-29T20:47:23.333Z,4.00
2023-03-29T20:49:54.320Z,3.75
2023-03-29T20:52:22.254Z,4.05
2023-03-29T20:54:49.578Z,4.38
2023-03-29T20:57:19.582Z,3.58
2023-03-29T20:59:46.782Z,3.28
2023-03-29T21:02:22.719Z,3.58
2023-03-29T21:04:51.783Z,3.40
2023-03-29T21:07:19.906Z,3.63
2023-03-29T21:09:48.428Z,3.17
2023-03-29T21:12:14.828Z,3.88
2023-03-29T21:14:41.608Z,3.83
2023-03-29T21:17:09.507Z,4.03
2023-03-29T21:19:38.021Z,4.70
2023-03-29T21:22:04.992Z,3.97
2023-03-29T21:24:33.018Z,4.07
2023-03-29T21:27:00.521Z,4.20
2023-03-29T21:29:27.034Z,4.55
2023-03-29T21:31:53.746Z,5.15
2023-03-29T21:34:20.368Z,3.88
2023-03-29T21:36:46.869Z,4.00
2023-03-29T21:39:13.357Z,4.70
2023-03-29T21:41:39.820Z,4.75
2023-03-29T21:44:06.291Z,4.57
2023-03-29T21:46:32.955Z,4.82
2023-03-29T21:48:59.384Z,4.72
2023-03-29T21:51:26.098Z,5.15
2023-03-29T21:53:52.602Z,3.83
2023-03-29T21:56:19.013Z,4.38
2023-03-29T21:58:45.475Z,4.22
2023-03-29T22:01:12.256Z,5.07
2023-03-29T22:03:38.746Z,3.63
2023-03-29T22:06:11.002Z,4.45
2023-03-29T22:08:40.628Z,3.95
2023-03-29T22:11:14.141Z,4.55
2023-03-29T22:13:41.804Z,4.47
2023-03-29T22:16:13.443Z,4.03
2023-03-29T22:18:43.203Z,4.25
2023-03-29T22:21:18.532Z,4.30
2023-03-29T22:23:47.463Z,3.58
2023-03-29T22:26:15.752Z,3.90
2023-03-29T22:28:42.262Z,4.22
2023-03-29T22:31:11.872Z,3.53
2023-03-29T22:33:39.060Z,3.80
2023-03-29T22:36:23.351Z,4.03
2023-03-29T22:38:50.728Z,3.50
2023-03-29T22:41:18.625Z,3.55
2023-03-29T22:43:45.365Z,3.78
2023-03-29T22:46:13.860Z,3.42
2023-03-29T22:51:07.555Z,3.28
2023-03-29T22:53:34.092Z,3.17
2023-03-29T22:56:00.829Z,3.35
2023-03-29T22:58:29.268Z,3.42
2023-03-29T23:00:57.164Z,3.92
2023-03-29T23:03:23.939Z,3.63
2023-03-29T23:05:55.336Z,3.95
2023-03-29T23:08:25.682Z,3.67
2023-03-29T23:10:52.544Z,3.67
2023-03-29T23:13:23.978Z,3.72
2023-03-29T23:15:51.665Z,3.42
2023-03-29T23:18:20.969Z,3.30
2023-03-29T23:20:49.088Z,3.72
2023-03-29T23:23:16.966Z,3.47
2023-03-29T23:25:45.648Z,3.83
2023-03-29T23:28:12.751Z,3.30
2023-03-29T23:30:39.522Z,3.40
2023-03-29T23:33:07.128Z,3.45
2023-03-29T23:35:33.817Z,3.20
2023-03-29T23:38:00.662Z,3.22
2023-03-29T23:40:27.843Z,3.65
2023-03-29T23:42:59.500Z,3.70
2023-03-29T23:45:28.013Z,3.42
2023-03-29T23:47:54.903Z,3.40
2023-03-29T23:50:23.791Z,4.78
2023-03-29T23:52:51.520Z,3.20
2023-03-29T23:55:18.462Z,3.28
2023-03-29T23:57:45.065Z,3.03
